sensor_id;sensor_type;location;lat;lon;timestamp;P1;durP1;ratioP1;P2;durP2;ratioP2
32866;SDS011;19220;55.816;37.808;2023-04-01T00:00:23;22.13;;;14.55;;
32866;SDS011;19220;55.816;37.808;2023-04-01T00:02:49;23.45;;;15.45;;
32866;SDS011;19220;55.816;37.808;2023-04-01T00:05:15;21.92;;;15.00;;
32866;SDS011;19220;55.816;37.808;2023-04-01T00:07:41;21.35;;;15.05;;
32866;SDS011;19220;55.816;37.808;2023-04-01T00:10:09;25.92;;;16.48;;
32866;SDS011;19220;55.816;37.808;2023-04-01T00:12:36;21.58;;;15.05;;
32866;SDS011;19220;55.816;37.808;2023-04-01T00:15:02;21.58;;;15.45;;
32866;SDS011;19220;55.816;37.808;2023-04-01T00:17:28;20.38;;;14.77;;
32866;SDS011;19220;55.816;37.808;2023-04-01T00:19:57;25.42;;;15.98;;
32866;SDS011;19220;55.816;37.808;2023-04-01T00:22:23;23.55;;;15.40;;
32866;SDS011;19220;55.816;37.808;2023-04-01T00:24:48;23.25;;;16.27;;
32866;SDS011;19220;55.816;37.808;2023-04-01T00:27:14;19.65;;;14.18;;
32866;SDS011;19220;55.816;37.808;2023-04-01T00:29:44;20.42;;;14.40;;
32866;SDS011;19220;55.816;37.808;2023-04-01T00:32:10;21.90;;;15.40;;
32866;SDS011;19220;55.816;37.808;2023-04-01T00:34:35;20.80;;;14.60;;
32866;SDS011;19220;55.816;37.808;2023-04-01T00:37:02;19.30;;;13.80;;
32866;SDS011;19220;55.816;37.808;2023-04-01T00:39:31;21.38;;;14.52;;
32866;SDS011;19220;55.816;37.808;2023-04-01T00:41:57;22.05;;;14.50;;
32866;SDS011;19220;55.816;37.808;2023-04-01T00:44:24;23.77;;;14.43;;
32866;SDS011;19220;55.816;37.808;2023-04-01T00:46:51;19.30;;;13.60;;
32866;SDS011;19220;55.816;37.808;2023-04-01T00:49:18;20.63;;;14.75;;
32866;SDS011;19220;55.816;37.808;2023-04-01T00:51:45;20.50;;;14.07;;
32866;SDS011;19220;55.816;37.808;2023-04-01T00:54:11;19.10;;;14.45;;
32866;SDS011;19220;55.816;37.808;2023-04-01T00:56:38;18.92;;;14.25;;
32866;SDS011;19220;55.816;37.808;2023-04-01T00:59:13;20.15;;;14.38;;
32866;SDS011;19220;55.816;37.808;2023-04-01T01:01:39;17.58;;;13.80;;
32866;SDS011;19220;55.816;37.808;2023-04-01T01:04:05;20.25;;;13.98;;
32866;SDS011;19220;55.816;37.808;2023-04-01T01:06:36;19.92;;;14.07;;
32866;SDS011;19220;55.816;37.808;2023-04-01T01:12:11;18.48;;;12.95;;
32866;SDS011;19220;55.816;37.808;2023-04-01T01:17:09;19.02;;;13.95;;
32866;SDS011;19220;55.816;37.808;2023-04-01T01:27:14;21.35;;;14.75;;
32866;SDS011;19220;55.816;37.808;2023-04-01T01:29:48;18.70;;;13.43;;
32866;SDS011;19220;55.816;37.808;2023-04-01T01:37:21;20.83;;;14.18;;
32866;SDS011;19220;55.816;37.808;2023-04-01T01:39:51;17.85;;;12.82;;
32866;SDS011;19220;55.816;37.808;2023-04-01T01:42:18;19.35;;;13.60;;
32866;SDS011;19220;55.816;37.808;2023-04-01T01:44:45;19.08;;;13.85;;
32866;SDS011;19220;55.816;37.808;2023-04-01T01:47:11;22.90;;;14.63;;
32866;SDS011;19220;55.816;37.808;2023-04-01T01:49:37;22.10;;;14.77;;
32866;SDS011;19220;55.816;37.808;2023-04-01T01:52:04;20.27;;;13.95;;
32866;SDS011;19220;55.816;37.808;2023-04-01T01:54:30;20.27;;;14.48;;
32866;SDS011;19220;55.816;37.808;2023-04-01T01:57:00;20.95;;;14.90;;
32866;SDS011;19220;55.816;37.808;2023-04-01T01:59:26;23.48;;;15.95;;
32866;SDS011;19220;55.816;37.808;2023-04-01T02:01:54;21.60;;;14.75;;
32866;SDS011;19220;55.816;37.808;2023-04-01T02:04:21;22.10;;;15.02;;
32866;SDS011;19220;55.816;37.808;2023-04-01T02:06:50;25.80;;;15.38;;
32866;SDS011;19220;55.816;37.808;2023-04-01T02:09:18;23.25;;;16.15;;
32866;SDS011;19220;55.816;37.808;2023-04-01T02:14:26;22.38;;;16.20;;
32866;SDS011;19220;55.816;37.808;2023-04-01T02:19:18;25.92;;;17.33;;
32866;SDS011;19220;55.816;37.808;2023-04-01T02:21:53;24.85;;;17.25;;
32866;SDS011;19220;55.816;37.808;2023-04-01T02:24:20;21.67;;;16.70;;
32866;SDS011;19220;55.816;37.808;2023-04-01T02:26:48;25.63;;;17.90;;
32866;SDS011;19220;55.816;37.808;2023-04-01T02:29:15;23.55;;;16.10;;
32866;SDS011;19220;55.816;37.808;2023-04-01T02:31:41;24.45;;;17.05;;
32866;SDS011;19220;55.816;37.808;2023-04-01T02:34:07;22.08;;;16.15;;
32866;SDS011;19220;55.816;37.808;2023-04-01T02:36:34;21.50;;;15.95;;
32866;SDS011;19220;55.816;37.808;2023-04-01T02:39:00;24.55;;;17.50;;
32866;SDS011;19220;55.816;37.808;2023-04-01T02:41:27;22.98;;;16.48;;
32866;SDS011;19220;55.816;37.808;2023-04-01T02:43:53;22.25;;;16.95;;
32866;SDS011;19220;55.816;37.808;2023-04-01T02:46:20;23.05;;;16.67;;
32866;SDS011;19220;55.816;37.808;2023-04-01T02:48:46;22.20;;;17.05;;
32866;SDS011;19220;55.816;37.808;2023-04-01T02:51:11;21.05;;;16.83;;
32866;SDS011;19220;55.816;37.808;2023-04-01T02:53:37;21.15;;;16.45;;
32866;SDS011;19220;55.816;37.808;2023-04-01T02:56:02;21.52;;;16.75;;
32866;SDS011;19220;55.816;37.808;2023-04-01T02:58:28;23.10;;;17.52;;
32866;SDS011;19220;55.816;37.808;2023-04-01T03:00:53;22.67;;;16.70;;
32866;SDS011;19220;55.816;37.808;2023-04-01T03:03:19;20.88;;;16.58;;
32866;SDS011;19220;55.816;37.808;2023-04-01T03:05:45;22.48;;;16.77;;
32866;SDS011;19220;55.816;37.808;2023-04-01T03:08:10;22.15;;;16.77;;
32866;SDS011;19220;55.816;37.808;2023-04-01T03:10:37;24.55;;;16.92;;
32866;SDS011;19220;55.816;37.808;2023-04-01T03:13:03;27.77;;;18.83;;
32866;SDS011;19220;55.816;37.808;2023-04-01T03:15:28;23.80;;;17.30;;
32866;SDS011;19220;55.816;37.808;2023-04-01T03:17:54;25.15;;;19.15;;
32866;SDS011;19220;55.816;37.808;2023-04-01T03:20:19;23.88;;;17.90;;
32866;SDS011;19220;55.816;37.808;2023-04-01T03:22:45;23.25;;;17.60;;
32866;SDS011;19220;55.816;37.808;2023-04-01T03:25:11;22.08;;;17.08;;
32866;SDS011;19220;55.816;37.808;2023-04-01T03:27:38;21.73;;;16.42;;
32866;SDS011;19220;55.816;37.808;2023-04-01T03:30:05;63.67;;;45.47;;
32866;SDS011;19220;55.816;37.808;2023-04-01T03:32:36;20.45;;;15.88;;
32866;SDS011;19220;55.816;37.808;2023-04-01T03:35:01;21.25;;;15.80;;
32866;SDS011;19220;55.816;37.808;2023-04-01T03:37:28;20.50;;;16.02;;
32866;SDS011;19220;55.816;37.808;2023-04-01T03:39:53;21.35;;;16.95;;
32866;SDS011;19220;55.816;37.808;2023-04-01T03:42:19;19.25;;;15.70;;
32866;SDS011;19220;55.816;37.808;2023-04-01T03:44:45;19.85;;;15.10;;
32866;SDS011;19220;55.816;37.808;2023-04-01T03:47:11;22.10;;;16.85;;
32866;SDS011;19220;55.816;37.808;2023-04-01T03:49:37;18.35;;;15.60;;
32866;SDS011;19220;55.816;37.808;2023-04-01T03:52:02;20.38;;;15.55;;
32866;SDS011;19220;55.816;37.808;2023-04-01T03:54:28;20.48;;;15.48;;
32866;SDS011;19220;55.816;37.808;2023-04-01T03:56:53;18.88;;;15.85;;
32866;SDS011;19220;55.816;37.808;2023-04-01T03:59:20;19.77;;;15.40;;
32866;SDS011;19220;55.816;37.808;2023-04-01T04:01:46;19.50;;;15.27;;
32866;SDS011;19220;55.816;37.808;2023-04-01T04:04:12;18.25;;;14.55;;
32866;SDS011;19220;55.816;37.808;2023-04-01T04:06:38;17.83;;;14.23;;
32866;SDS011;19220;55.816;37.808;2023-04-01T04:09:04;21.42;;;15.55;;
32866;SDS011;19220;55.816;37.808;2023-04-01T04:11:30;19.50;;;15.10;;
32866;SDS011;19220;55.816;37.808;2023-04-01T04:13:55;19.10;;;15.38;;
32866;SDS011;19220;55.816;37.808;2023-04-01T04:16:21;19.58;;;15.52;;
32866;SDS011;19220;55.816;37.808;2023-04-01T04:18:53;17.25;;;14.27;;
32866;SDS011;19220;55.816;37.808;2023-04-01T04:21:19;17.58;;;14.10;;
32866;SDS011;19220;55.816;37.808;2023-04-01T04:23:45;19.65;;;15.48;;
32866;SDS011;19220;55.816;37.808;2023-04-01T04:26:13;18.10;;;15.00;;
32866;SDS011;19220;55.816;37.808;2023-04-01T04:28:40;23.38;;;17.13;;
32866;SDS011;19220;55.816;37.808;2023-04-01T04:31:06;19.02;;;15.63;;
32866;SDS011;19220;55.816;37.808;2023-04-01T04:33:34;20.58;;;16.10;;
32866;SDS011;19220;55.816;37.808;2023-04-01T04:36:00;19.90;;;15.05;;
32866;SDS011;19220;55.816;37.808;2023-04-01T04:38:26;21.02;;;16.60;;
32866;SDS011;19220;55.816;37.808;2023-04-01T04:40:52;21.52;;;16.27;;
32866;SDS011;19220;55.816;37.808;2023-04-01T04:43:18;22.75;;;16.92;;
32866;SDS011;19220;55.816;37.808;2023-04-01T04:45:44;20.63;;;16.02;;
32866;SDS011;19220;55.816;37.808;2023-04-01T04:48:11;22.65;;;16.52;;
32866;SDS011;19220;55.816;37.808;2023-04-01T04:50:44;26.13;;;18.83;;
32866;SDS011;19220;55.816;37.808;2023-04-01T04:53:14;21.13;;;15.85;;
32866;SDS011;19220;55.816;37.808;2023-04-01T04:55:47;21.08;;;16.17;;
32866;SDS011;19220;55.816;37.808;2023-04-01T04:58:21;22.83;;;17.02;;
32866;SDS011;19220;55.816;37.808;2023-04-01T05:00:47;23.77;;;17.48;;
32866;SDS011;19220;55.816;37.808;2023-04-01T05:03:24;22.27;;;17.25;;
32866;SDS011;19220;55.816;37.808;2023-04-01T05:05:51;25.75;;;19.20;;
32866;SDS011;19220;55.816;37.808;2023-04-01T05:08:17;24.60;;;17.95;;
32866;SDS011;19220;55.816;37.808;2023-04-01T05:10:43;19.35;;;16.27;;
32866;SDS011;19220;55.816;37.808;2023-04-01T05:13:10;25.13;;;18.52;;
32866;SDS011;19220;55.816;37.808;2023-04-01T05:15:36;23.25;;;18.92;;
32866;SDS011;19220;55.816;37.808;2023-04-01T05:18:02;24.73;;;19.27;;
32866;SDS011;19220;55.816;37.808;2023-04-01T05:20:28;24.63;;;19.23;;
32866;SDS011;19220;55.816;37.808;2023-04-01T05:22:57;24.35;;;19.02;;
32866;SDS011;19220;55.816;37.808;2023-04-01T05:25:23;24.77;;;18.30;;
32866;SDS011;19220;55.816;37.808;2023-04-01T05:27:49;23.55;;;17.92;;
32866;SDS011;19220;55.816;37.808;2023-04-01T05:30:15;21.67;;;17.38;;
32866;SDS011;19220;55.816;37.808;2023-04-01T05:33:03;19.83;;;16.08;;
32866;SDS011;19220;55.816;37.808;2023-04-01T05:35:29;21.67;;;16.83;;
32866;SDS011;19220;55.816;37.808;2023-04-01T05:37:54;23.77;;;17.77;;
32866;SDS011;19220;55.816;37.808;2023-04-01T05:40:20;22.98;;;18.80;;
32866;SDS011;19220;55.816;37.808;2023-04-01T05:42:46;19.67;;;16.38;;
32866;SDS011;19220;55.816;37.808;2023-04-01T05:45:11;22.30;;;17.08;;
32866;SDS011;19220;55.816;37.808;2023-04-01T05:47:55;22.10;;;17.92;;
32866;SDS011;19220;55.816;37.808;2023-04-01T05:50:21;22.23;;;16.38;;
32866;SDS011;19220;55.816;37.808;2023-04-01T05:52:46;18.40;;;15.38;;
32866;SDS011;19220;55.816;37.808;2023-04-01T05:55:12;19.83;;;16.23;;
32866;SDS011;19220;55.816;37.808;2023-04-01T05:57:38;21.05;;;16.23;;
32866;SDS011;19220;55.816;37.808;2023-04-01T06:00:04;17.50;;;14.95;;
32866;SDS011;19220;55.816;37.808;2023-04-01T06:02:38;17.85;;;15.68;;
32866;SDS011;19220;55.816;37.808;2023-04-01T06:05:24;17.58;;;14.93;;
32866;SDS011;19220;55.816;37.808;2023-04-01T06:07:51;17.73;;;14.85;;
32866;SDS011;19220;55.816;37.808;2023-04-01T06:10:19;17.35;;;14.68;;
32866;SDS011;19220;55.816;37.808;2023-04-01T06:15:25;15.20;;;13.60;;
32866;SDS011;19220;55.816;37.808;2023-04-01T06:23:19;14.95;;;13.35;;
32866;SDS011;19220;55.816;37.808;2023-04-01T06:25:51;16.75;;;13.98;;
32866;SDS011;19220;55.816;37.808;2023-04-01T06:44:13;18.15;;;15.00;;
32866;SDS011;19220;55.816;37.808;2023-04-01T06:50:26;15.75;;;13.27;;
32866;SDS011;19220;55.816;37.808;2023-04-01T06:56:09;18.50;;;13.50;;
32866;SDS011;19220;55.816;37.808;2023-04-01T06:58:50;18.25;;;14.15;;
32866;SDS011;19220;55.816;37.808;2023-04-01T07:01:20;16.33;;;12.88;;
32866;SDS011;19220;55.816;37.808;2023-04-01T07:03:53;16.65;;;14.48;;
32866;SDS011;19220;55.816;37.808;2023-04-01T07:06:31;16.73;;;13.80;;
32866;SDS011;19220;55.816;37.808;2023-04-01T07:09:00;17.73;;;13.77;;
32866;SDS011;19220;55.816;37.808;2023-04-01T07:11:42;16.02;;;14.25;;
32866;SDS011;19220;55.816;37.808;2023-04-01T07:14:36;15.50;;;13.50;;
32866;SDS011;19220;55.816;37.808;2023-04-01T07:17:06;14.52;;;12.70;;
32866;SDS011;19220;55.816;37.808;2023-04-01T07:22:26;17.50;;;14.00;;
32866;SDS011;19220;55.816;37.808;2023-04-01T07:25:51;16.75;;;13.30;;
32866;SDS011;19220;55.816;37.808;2023-04-01T07:28:11;19.63;;;14.70;;
32866;SDS011;19220;55.816;37.808;2023-04-01T07:43:22;18.40;;;15.23;;
32866;SDS011;19220;55.816;37.808;2023-04-01T07:48:54;20.00;;;14.52;;
32866;SDS011;19220;55.816;37.808;2023-04-01T07:51:29;17.37;;;14.67;;
32866;SDS011;19220;55.816;37.808;2023-04-01T07:54:11;17.67;;;15.50;;
32866;SDS011;19220;55.816;37.808;2023-04-01T08:04:51;17.17;;;14.23;;
32866;SDS011;19220;55.816;37.808;2023-04-01T08:07:30;16.17;;;13.18;;
32866;SDS011;19220;55.816;37.808;2023-04-01T08:16:34;13.35;;;11.95;;
32866;SDS011;19220;55.816;37.808;2023-04-01T08:21:41;16.40;;;11.23;;
32866;SDS011;19220;55.816;37.808;2023-04-01T08:24:31;14.45;;;10.80;;
32866;SDS011;19220;55.816;37.808;2023-04-01T08:26:55;12.73;;;9.95;;
32866;SDS011;19220;55.816;37.808;2023-04-01T08:29:23;12.07;;;10.48;;
32866;SDS011;19220;55.816;37.808;2023-04-01T08:34:15;14.82;;;9.55;;
32866;SDS011;19220;55.816;37.808;2023-04-01T08:36:45;15.07;;;13.23;;
32866;SDS011;19220;55.816;37.808;2023-04-01T08:39:18;14.23;;;10.38;;
32866;SDS011;19220;55.816;37.808;2023-04-01T08:45:12;12.87;;;9.10;;
32866;SDS011;19220;55.816;37.808;2023-04-01T08:47:32;12.95;;;9.75;;
32866;SDS011;19220;55.816;37.808;2023-04-01T09:01:21;11.02;;;8.20;;
32866;SDS011;19220;55.816;37.808;2023-04-01T09:04:58;10.57;;;8.48;;
32866;SDS011;19220;55.816;37.808;2023-04-01T09:27:26;12.23;;;8.20;;
32866;SDS011;19220;55.816;37.808;2023-04-01T09:35:22;11.52;;;8.68;;
32866;SDS011;19220;55.816;37.808;2023-04-01T09:40:36;14.15;;;8.77;;
32866;SDS011;19220;55.816;37.808;2023-04-01T09:48:09;11.85;;;9.02;;
32866;SDS011;19220;55.816;37.808;2023-04-01T09:53:20;11.43;;;9.43;;
32866;SDS011;19220;55.816;37.808;2023-04-01T10:01:19;11.52;;;8.13;;
32866;SDS011;19220;55.816;37.808;2023-04-01T10:22:43;12.00;;;9.48;;
32866;SDS011;19220;55.816;37.808;2023-04-01T10:28:43;16.05;;;9.68;;
32866;SDS011;19220;55.816;37.808;2023-04-01T10:44:48;10.07;;;8.18;;
32866;SDS011;19220;55.816;37.808;2023-04-01T11:02:00;8.80;;;7.22;;
32866;SDS011;19220;55.816;37.808;2023-04-01T11:21:02;8.52;;;6.20;;
32866;SDS011;19220;55.816;37.808;2023-04-01T11:23:44;11.18;;;5.38;;
32866;SDS011;19220;55.816;37.808;2023-04-01T11:29:20;7.63;;;5.30;;
32866;SDS011;19220;55.816;37.808;2023-04-01T11:43:01;10.43;;;4.72;;
32866;SDS011;19220;55.816;37.808;2023-04-01T11:46:01;7.82;;;4.93;;
32866;SDS011;19220;55.816;37.808;2023-04-01T11:53:23;33.30;;;5.30;;
32866;SDS011;19220;55.816;37.808;2023-04-01T11:55:55;7.70;;;4.25;;
32866;SDS011;19220;55.816;37.808;2023-04-01T12:00:53;6.38;;;4.28;;
32866;SDS011;19220;55.816;37.808;2023-04-01T12:06:16;6.40;;;4.13;;
32866;SDS011;19220;55.816;37.808;2023-04-01T12:11:26;6.55;;;4.60;;
32866;SDS011;19220;55.816;37.808;2023-04-01T12:14:08;6.60;;;4.55;;
32866;SDS011;19220;55.816;37.808;2023-04-01T13:31:29;10.02;;;5.47;;
32866;SDS011;19220;55.816;37.808;2023-04-01T13:39:29;7.57;;;4.70;;
32866;SDS011;19220;55.816;37.808;2023-04-01T13:42:16;8.13;;;4.70;;
32866;SDS011;19220;55.816;37.808;2023-04-01T13:44:46;8.48;;;5.05;;
32866;SDS011;19220;55.816;37.808;2023-04-01T13:47:17;10.13;;;5.18;;
32866;SDS011;19220;55.816;37.808;2023-04-01T14:05:50;11.93;;;5.73;;
32866;SDS011;19220;55.816;37.808;2023-04-01T14:25:58;7.97;;;4.72;;
32866;SDS011;19220;55.816;37.808;2023-04-01T14:33:21;9.70;;;6.15;;
32866;SDS011;19220;55.816;37.808;2023-04-01T14:48:59;7.15;;;5.68;;
32866;SDS011;19220;55.816;37.808;2023-04-01T15:07:01;8.20;;;5.57;;
32866;SDS011;19220;55.816;37.808;2023-04-01T15:14:34;8.65;;;5.50;;
32866;SDS011;19220;55.816;37.808;2023-04-01T15:19:46;8.23;;;6.03;;
32866;SDS011;19220;55.816;37.808;2023-04-01T15:33:06;7.63;;;5.95;;
32866;SDS011;19220;55.816;37.808;2023-04-01T15:54:15;10.50;;;8.38;;
32866;SDS011;19220;55.816;37.808;2023-04-01T15:56:49;10.30;;;8.10;;
32866;SDS011;19220;55.816;37.808;2023-04-01T16:07:01;11.10;;;8.60;;
32866;SDS011;19220;55.816;37.808;2023-04-01T16:15:03;12.68;;;9.65;;
32866;SDS011;19220;55.816;37.808;2023-04-01T16:22:38;13.50;;;9.27;;
32866;SDS011;19220;55.816;37.808;2023-04-01T16:27:36;13.48;;;10.27;;
32866;SDS011;19220;55.816;37.808;2023-04-01T16:35:44;13.15;;;9.68;;
32866;SDS011;19220;55.816;37.808;2023-04-01T16:43:15;11.68;;;8.82;;
32866;SDS011;19220;55.816;37.808;2023-04-01T16:45:46;9.95;;;8.75;;
32866;SDS011;19220;55.816;37.808;2023-04-01T16:48:20;10.45;;;8.95;;
32866;SDS011;19220;55.816;37.808;2023-04-01T16:51:02;15.55;;;10.30;;
32866;SDS011;19220;55.816;37.808;2023-04-01T16:53:41;11.88;;;8.95;;
32866;SDS011;19220;55.816;37.808;2023-04-01T16:56:16;13.23;;;9.13;;
32866;SDS011;19220;55.816;37.808;2023-04-01T16:59:07;11.52;;;9.35;;
32866;SDS011;19220;55.816;37.808;2023-04-01T17:04:25;10.90;;;9.80;;
32866;SDS011;19220;55.816;37.808;2023-04-01T17:07:05;11.10;;;9.60;;
32866;SDS011;19220;55.816;37.808;2023-04-01T17:12:24;14.60;;;10.13;;
32866;SDS011;19220;55.816;37.808;2023-04-01T17:17:33;11.68;;;10.05;;
32866;SDS011;19220;55.816;37.808;2023-04-01T17:20:13;12.55;;;10.00;;
32866;SDS011;19220;55.816;37.808;2023-04-01T17:25:29;13.43;;;10.05;;
32866;SDS011;19220;55.816;37.808;2023-04-01T17:27:58;11.55;;;9.50;;
32866;SDS011;19220;55.816;37.808;2023-04-01T18:01:39;8.57;;;7.68;;
32866;SDS011;19220;55.816;37.808;2023-04-01T18:12:06;9.32;;;7.90;;
32866;SDS011;19220;55.816;37.808;2023-04-01T18:17:08;8.13;;;7.32;;
32866;SDS011;19220;55.816;37.808;2023-04-01T18:24:30;9.18;;;7.90;;
32866;SDS011;19220;55.816;37.808;2023-04-01T18:27:02;10.05;;;8.25;;
32866;SDS011;19220;55.816;37.808;2023-04-01T18:29:34;8.80;;;7.90;;
32866;SDS011;19220;55.816;37.808;2023-04-01T18:37:02;10.52;;;8.68;;
32866;SDS011;19220;55.816;37.808;2023-04-01T18:42:03;11.52;;;9.82;;
32866;SDS011;19220;55.816;37.808;2023-04-01T18:52:13;11.25;;;9.52;;
32866;SDS011;19220;55.816;37.808;2023-04-01T18:54:43;12.43;;;9.13;;
32866;SDS011;19220;55.816;37.808;2023-04-01T18:57:12;10.05;;;8.88;;
32866;SDS011;19220;55.816;37.808;2023-04-01T18:59:42;11.15;;;9.10;;
32866;SDS011;19220;55.816;37.808;2023-04-01T19:05:32;11.48;;;9.48;;
32866;SDS011;19220;55.816;37.808;2023-04-01T19:07:48;12.60;;;9.05;;
32866;SDS011;19220;55.816;37.808;2023-04-01T19:23:02;11.73;;;9.70;;
32866;SDS011;19220;55.816;37.808;2023-04-01T19:25:42;13.90;;;9.32;;
32866;SDS011;19220;55.816;37.808;2023-04-01T19:48:49;12.70;;;10.68;;
32866;SDS011;19220;55.816;37.808;2023-04-01T19:51:23;14.00;;;11.10;;
32866;SDS011;19220;55.816;37.808;2023-04-01T19:53:56;12.30;;;10.13;;
32866;SDS011;19220;55.816;37.808;2023-04-01T19:56:24;14.65;;;10.90;;
32866;SDS011;19220;55.816;37.808;2023-04-01T20:11:50;14.23;;;11.00;;
32866;SDS011;19220;55.816;37.808;2023-04-01T20:14:27;11.40;;;10.20;;
32866;SDS011;19220;55.816;37.808;2023-04-01T20:17:02;17.60;;;12.20;;
32866;SDS011;19220;55.816;37.808;2023-04-01T20:19:42;13.20;;;10.57;;
32866;SDS011;19220;55.816;37.808;2023-04-01T20:24:53;13.95;;;11.10;;
32866;SDS011;19220;55.816;37.808;2023-04-01T20:27:23;15.38;;;10.32;;
32866;SDS011;19220;55.816;37.808;2023-04-01T20:42:32;13.85;;;11.35;;
32866;SDS011;19220;55.816;37.808;2023-04-01T20:50:51;15.68;;;12.05;;
32866;SDS011;19220;55.816;37.808;2023-04-01T20:53:20;16.50;;;11.50;;
32866;SDS011;19220;55.816;37.808;2023-04-01T20:58:31;16.25;;;11.30;;
32866;SDS011;19220;55.816;37.808;2023-04-01T21:05:59;17.35;;;11.98;;
32866;SDS011;19220;55.816;37.808;2023-04-01T21:08:32;15.13;;;11.63;;
32866;SDS011;19220;55.816;37.808;2023-04-01T21:13:49;14.43;;;12.23;;
32866;SDS011;19220;55.816;37.808;2023-04-01T21:16:27;17.55;;;12.25;;
32866;SDS011;19220;55.816;37.808;2023-04-01T21:22:17;16.27;;;11.93;;
32866;SDS011;19220;55.816;37.808;2023-04-01T21:24:38;17.65;;;12.07;;
32866;SDS011;19220;55.816;37.808;2023-04-01T21:40:39;15.35;;;12.20;;
32866;SDS011;19220;55.816;37.808;2023-04-01T21:43:14;17.63;;;12.57;;
32866;SDS011;19220;55.816;37.808;2023-04-01T21:48:32;16.42;;;12.27;;
32866;SDS011;19220;55.816;37.808;2023-04-01T22:02:00;14.00;;;10.93;;
32866;SDS011;19220;55.816;37.808;2023-04-01T22:14:27;13.65;;;11.23;;
32866;SDS011;19220;55.816;37.808;2023-04-01T22:17:05;16.30;;;11.27;;
32866;SDS011;19220;55.816;37.808;2023-04-01T22:22:12;13.38;;;11.38;;
32866;SDS011;19220;55.816;37.808;2023-04-01T22:32:25;16.45;;;11.52;;
32866;SDS011;19220;55.816;37.808;2023-04-01T22:37:19;16.50;;;12.68;;
32866;SDS011;19220;55.816;37.808;2023-04-01T22:44:57;17.73;;;12.82;;
32866;SDS011;19220;55.816;37.808;2023-04-01T22:52:45;17.33;;;12.73;;
32866;SDS011;19220;55.816;37.808;2023-04-01T22:57:45;17.90;;;13.77;;
32866;SDS011;19220;55.816;37.808;2023-04-01T23:02:46;17.73;;;12.07;;
32866;SDS011;19220;55.816;37.808;2023-04-01T23:05:13;16.55;;;12.85;;
32866;SDS011;19220;55.816;37.808;2023-04-01T23:12:52;16.27;;;12.80;;
32866;SDS011;19220;55.816;37.808;2023-04-01T23:15:19;18.17;;;12.98;;
32866;SDS011;19220;55.816;37.808;2023-04-01T23:17:53;16.95;;;12.30;;
32866;SDS011;19220;55.816;37.808;2023-04-01T23:20:26;15.55;;;12.52;;
32866;SDS011;19220;55.816;37.808;2023-04-01T23:25:26;17.60;;;13.48;;
32866;SDS011;19220;55.816;37.808;2023-04-01T23:28:05;18.58;;;14.00;;
32866;SDS011;19220;55.816;37.808;2023-04-01T23:35:49;19.02;;;14.18;;
32866;SDS011;19220;55.816;37.808;2023-04-01T23:38:14;18.10;;;14.27;;
32866;SDS011;19220;55.816;37.808;2023-04-01T23:40:41;18.75;;;14.15;;
32866;SDS011;19220;55.816;37.808;2023-04-01T23:43:21;20.50;;;15.32;;
32866;SDS011;19220;55.816;37.808;2023-04-01T23:45:47;22.33;;;16.75;;
32866;SDS011;19220;55.816;37.808;2023-04-01T23:48:13;22.85;;;15.93;;
32866;SDS011;19220;55.816;37.808;2023-04-01T23:50:40;23.15;;;16.45;;
32866;SDS011;19220;55.816;37.808;2023-04-01T23:53:25;24.08;;;17.00;;
32866;SDS011;19220;55.816;37.808;2023-04-01T23:55:51;27.40;;;18.67;;
32866;SDS011;19220;55.816;37.808;2023-04-01T23:58:38;26.85;;;19.63;;
